Aérodrome :
LOGIN :

S'inscrire | Disclaimer

   EN    FR    IT 

 










Légende :    VFR   VFR Marginal   IFR   IFR Intensif   IFR Très Intensif
Visi : 
Plafond : 
>= 8 km
>= 3000ft
5 à 8 km
1000 à 3000 ft
1500m à 5 km
500 à 1000 ft
800 à 1500m
200 à 500 ft
< 800m
< 200 ft
Symboles :   Orages  Brouillard  Fortes neiges  Fortes précipitations  Vent > 20 kt
SIGMETs :   Divers  Orages  Givrage  Turbulence  Onde Orograph.  Cendres Volcan.






- Altitude de l'aérodrome : 209 ft
- Code IATA : CLY


LFKC - Calvi

DERNIER METAR :
  • 022100Z AUTO 00000KT CAVOK 17/11 Q1014

METARs EXPIRÉS :
  • 022030Z AUTO 00000KT CAVOK 18/11 Q1014 NOSIG
  • 022000Z AUTO 19005KT CAVOK 20/12 Q1013 NOSIG
  • 021930Z AUTO 18007KT CAVOK 20/12 Q1013 NOSIG
  • 021900Z AUTO 17007KT CAVOK 20/13 Q1013 NOSIG
  • 021830Z AUTO VRB03KT CAVOK 21/09 Q1013 NOSIG

TAF AMD TAF LFKC
Valide du 02 à 15h jusqu'au 03 à 15h UTC


021512Z 0215/0315 20007KT CAVOK TX26/0313Z TN13/0305Z
TEMPO 0215/0216 FEW045CB
BECMG 0309/0311 24013KT
TEMPO 0312/0315 23015G25KT FEW045TCU
ATIS : +33 4 95 65 82 49



MET'MAP, la Météo Aéronautique d'un coup d'oeil ! - Copyright ORBIFLY Décembre 2007 - Disclaimer

ORBIFLY MET'MAP TEAM :

Programmation & Développement : Alexandra Zaïnal
Sur une idée originale de : Baudouin d'Aumeries
Assistance à la programmation : Marc-Olivier Méhu
Soutien technique & logistique : Manuel Goepfert

Contact : metmap@orbifly.com




SOURCES & CREDITS :

   NOAA